Terminal Aerodrome Forecast
Issued by NWS

Home | Current Version | Previous Version | Text Only | Print | Product List | Glossary On
Versions: 1 2 3 4 5 6 7 8 9 10 11 12
000
FTUS46 KSTO 232300
TAFRDD
TAF
KRDD 232322Z 2400/2424 17009KT P6SM BKN200
     FM241000 18007KT P6SM SCT060 OVC120
      TEMPO 2417/2421 4SM -RA BR BKN060
     FM242100 18013G20KT 5SM -RA BR BKN050 OVC100=

USA.gov is the U.S. government's official web portal to all federal, state and local government web resources and services.